Карточка аэропорта UHMA

Внимание!
Информация на этой странице в стадии наполнения.
Если вы не увидели какой-то информации, или заметили неточность - пожалуйста сообщите нам!
Спасибо!
Команда RU-STAFF
Название аэропортаУгольный
Название аэропорта (англ.)Ugolny
Превышение194 ft. (59.1 m.)
Координаты64°44.1', 177°44.28'
Высота перехода1600m
Эшелон переходаQFE>=755mm:FL070; QFE<755=>728:FL080; QFE<728:FL090
Коды ответчика6501-6537
Зона ОрВДМагадан РПИ (UHMM)
Данные METARUHMA 241500Z 03004MPS 9999 FEW036 SCT045 M05/M07 Q1010 R01/////// NOSIG RMK TDZ R01/03004G07MPS END R01/03006G08MPS QFE754/1005
Проноз погоды (TAF)UHMA 241343Z 2415/2515 35006G11MPS 9999 SCT010 BKN025 TEMPO 2415/2509 36011G16MPS 5000 -SN BR SCT005 BKN015 BECMG 2509/2511 31003G08MPS TEMPO 2511/2515 34008G13MPS 5000 BR SCT008 BKN015
NOTAMshow/hide NOTAM
AWOS   TABLE

Информация о ВПП


Диспетчерские позиции

Позывной Наименование органа УВД Частота
UHMA_APPАнадырь-Подход124.0
UHMA_TWRАнадырь-Старт124.0



Спутниковое изображение